createdAt,value
2018-05-14T03:03:22.073Z,10.70
2018-05-14T03:05:50.305Z,10.80
2018-05-14T06:54:21.832Z,14.90
2018-05-14T06:56:50.086Z,15.00
2018-05-14T06:59:17.554Z,15.00
2018-05-14T07:01:46.181Z,15.10
2018-05-14T07:04:13.669Z,15.10
2018-05-14T07:06:41.174Z,15.10
2018-05-14T07:09:08.701Z,15.20
2018-05-14T07:11:36.255Z,15.30
2018-05-14T07:21:31.011Z,15.40
2018-05-14T07:23:58.836Z,15.40
2018-05-14T07:26:26.316Z,15.50
2018-05-14T07:28:53.792Z,15.70
2018-05-14T07:31:21.252Z,15.70
2018-05-14T07:33:49.504Z,15.60
2018-05-14T07:36:17.062Z,15.60
2018-05-14T07:38:44.493Z,15.60
2018-05-14T07:41:12.118Z,15.60
2018-05-14T07:43:39.592Z,15.40
2018-05-14T07:46:07.070Z,15.40
2018-05-14T07:48:34.538Z,15.40
2018-05-14T07:51:02.043Z,15.60
2018-05-14T07:53:30.280Z,16.00
2018-05-14T07:58:26.897Z,16.10
2018-05-14T08:00:54.381Z,16.20
2018-05-14T08:03:21.839Z,16.20
2018-05-14T08:05:49.348Z,16.50
2018-05-14T08:08:16.804Z,16.50
2018-05-14T08:10:45.056Z,16.40
2018-05-14T08:13:12.512Z,16.40
2018-05-14T08:15:39.954Z,16.40
2018-05-14T08:18:07.445Z,16.20
2018-05-14T08:20:34.893Z,16.00
2018-05-14T08:23:02.396Z,16.00
2018-05-14T08:25:29.880Z,16.30
2018-05-14T08:27:57.362Z,16.30
2018-05-14T08:30:24.908Z,16.40
2018-05-14T08:32:52.335Z,16.40
2018-05-14T08:35:19.838Z,16.20
2018-05-14T08:37:47.316Z,15.80
2018-05-14T08:40:15.555Z,15.80
2018-05-14T08:42:43.036Z,15.80
2018-05-14T08:45:10.505Z,16.00
2018-05-14T08:47:38.758Z,15.90
2018-05-14T08:50:06.981Z,15.80
2018-05-14T08:52:34.502Z,15.80
2018-05-14T08:55:02.776Z,15.60
2018-05-14T08:57:30.243Z,15.60
2018-05-14T08:59:58.328Z,15.50
2018-05-14T09:02:26.556Z,15.40
2018-05-14T09:04:54.052Z,15.40
2018-05-14T09:07:21.532Z,15.20
2018-05-14T09:09:49.026Z,15.10
2018-05-14T09:12:16.493Z,15.10
2018-05-14T09:14:44.003Z,15.00
2018-05-14T09:17:11.465Z,15.00
2018-05-14T09:19:39.094Z,14.90
2018-05-14T09:22:06.419Z,14.80
2018-05-14T09:24:33.904Z,14.70
2018-05-14T09:27:01.385Z,14.70
2018-05-14T09:29:29.616Z,14.80
2018-05-14T09:31:57.118Z,14.80
2018-05-14T09:34:25.346Z,15.00
2018-05-14T09:36:52.800Z,14.90
2018-05-14T09:39:20.296Z,15.00
2018-05-14T09:41:47.774Z,15.00
2018-05-14T09:44:15.293Z,15.00
2018-05-14T09:49:16.638Z,15.10
2018-05-14T09:51:44.117Z,15.00
2018-05-14T09:54:11.608Z,15.00
2018-05-14T09:56:39.833Z,14.90
2018-05-14T09:59:07.318Z,14.90
2018-05-14T10:01:34.804Z,14.90
2018-05-14T10:04:03.057Z,14.80
2018-05-14T10:06:31.290Z,14.80
2018-05-14T10:08:58.785Z,14.80
2018-05-14T10:11:26.256Z,14.80
2018-05-14T10:13:54.616Z,14.90
2018-05-14T10:16:22.125Z,14.90
2018-05-14T10:18:49.727Z,15.00
2018-05-14T10:21:17.229Z,15.00
2018-05-14T10:23:45.492Z,14.90
2018-05-14T10:26:13.723Z,14.80
2018-05-14T10:28:41.194Z,14.80
2018-05-14T10:31:08.708Z,14.80
2018-05-14T10:33:36.177Z,14.80
2018-05-14T10:36:03.681Z,14.90
2018-05-14T10:38:31.159Z,15.00
2018-05-14T10:40:59.424Z,14.90
2018-05-14T10:43:26.901Z,14.90
2018-05-14T10:45:55.187Z,14.90
2018-05-14T10:48:22.665Z,14.80
2018-05-14T10:50:50.149Z,14.90
2018-05-14T10:53:17.631Z,14.90
2018-05-14T10:55:45.121Z,14.90
2018-05-14T10:58:12.588Z,14.90
2018-05-14T11:00:40.071Z,14.90
2018-05-14T11:03:07.657Z,14.90
2018-05-14T11:05:35.152Z,14.90
2018-05-14T11:08:02.650Z,14.90
2018-05-14T11:10:30.144Z,14.90
2018-05-14T11:12:58.436Z,14.90
2018-05-14T11:15:25.894Z,14.90
2018-05-14T11:17:53.409Z,15.00
2018-05-14T11:20:20.883Z,15.00
2018-05-14T11:22:49.137Z,15.10
2018-05-14T11:25:16.613Z,15.10
2018-05-14T11:27:44.915Z,15.30
2018-05-14T11:30:12.413Z,15.20
2018-05-14T11:32:39.888Z,15.20
2018-05-14T11:35:07.485Z,15.30
2018-05-14T11:37:35.758Z,15.20
2018-05-14T11:40:03.982Z,15.20
2018-05-14T11:42:31.567Z,15.20
2018-05-14T11:44:59.034Z,15.20
2018-05-14T11:47:26.633Z,15.30
2018-05-14T11:49:54.091Z,15.40
2018-05-14T11:52:21.588Z,15.50
2018-05-14T11:54:49.084Z,15.50
2018-05-14T11:57:16.554Z,15.50
2018-05-14T11:59:44.855Z,15.60
2018-05-14T12:02:12.346Z,15.60
2018-05-14T12:04:39.829Z,15.60
2018-05-14T12:07:07.316Z,15.60
2018-05-14T12:09:34.840Z,15.50
2018-05-14T12:12:02.304Z,15.50
2018-05-14T12:14:29.805Z,15.50
2018-05-14T12:16:57.281Z,15.50
2018-05-14T12:19:24.783Z,15.60
2018-05-14T12:21:52.253Z,15.70
2018-05-14T12:24:20.485Z,15.80
2018-05-14T12:26:47.964Z,15.80
2018-05-14T12:29:15.435Z,16.00
2018-05-14T12:31:43.686Z,16.30
2018-05-14T12:34:11.149Z,16.20
2018-05-14T12:36:38.681Z,16.40
2018-05-14T12:39:06.161Z,16.50
2018-05-14T12:41:33.661Z,16.70
2018-05-14T12:44:01.139Z,17.00
2018-05-14T12:46:28.653Z,17.20
2018-05-14T12:48:56.327Z,17.40
2018-05-14T12:51:24.572Z,17.80
2018-05-14T12:53:52.148Z,17.80
2018-05-14T12:56:19.686Z,18.40
2018-05-14T12:58:47.213Z,18.80
2018-05-14T13:01:14.698Z,19.30
2018-05-14T13:03:42.201Z,19.30
2018-05-14T13:06:10.449Z,19.50
2018-05-14T13:08:37.938Z,19.50
2018-05-14T13:11:06.180Z,19.30
2018-05-14T13:13:33.689Z,19.20
2018-05-14T13:16:01.164Z,19.10
2018-05-14T13:18:28.680Z,19.00
2018-05-14T13:20:56.917Z,19.20
2018-05-14T13:23:24.413Z,19.10
2018-05-14T13:25:52.685Z,19.00
2018-05-14T13:28:20.916Z,18.90
2018-05-14T13:30:48.395Z,18.90
2018-05-14T13:33:15.896Z,19.00
2018-05-14T13:35:43.370Z,19.20
2018-05-14T13:38:10.879Z,19.50
2018-05-14T13:40:38.348Z,19.80
2018-05-14T13:43:06.699Z,20.30
2018-05-14T13:45:34.208Z,20.30
2018-05-14T13:48:01.734Z,19.70
2018-05-14T13:50:29.994Z,19.30
2018-05-14T13:52:57.476Z,19.30
2018-05-14T13:55:25.724Z,19.90
2018-05-14T13:57:53.234Z,19.80
2018-05-14T14:00:20.744Z,20.60
2018-05-14T14:02:48.204Z,20.80
2018-05-14T14:05:15.683Z,20.90
2018-05-14T14:07:43.933Z,20.50
2018-05-14T14:10:11.434Z,20.40
2018-05-14T14:12:38.896Z,20.20
2018-05-14T14:15:06.386Z,20.00
2018-05-14T14:17:33.915Z,20.20
2018-05-14T14:20:01.394Z,20.20
2018-05-14T14:22:28.967Z,20.20
2018-05-14T14:24:56.440Z,20.40
2018-05-14T14:27:23.964Z,20.50
2018-05-14T14:29:52.256Z,21.00
2018-05-14T14:32:19.684Z,21.20
2018-05-14T14:34:47.153Z,21.00
2018-05-14T14:37:14.706Z,21.20
2018-05-14T14:39:42.182Z,21.00
2018-05-14T14:42:09.772Z,21.20
2018-05-14T14:44:37.954Z,21.20
2018-05-14T14:47:05.468Z,21.20
2018-05-14T14:49:32.924Z,20.30
2018-05-14T14:52:00.385Z,20.70
2018-05-14T14:54:27.886Z,21.30
2018-05-14T14:56:55.355Z,21.90
2018-05-14T14:59:22.886Z,22.60
2018-05-14T15:01:50.351Z,23.00
2018-05-14T15:04:17.848Z,23.00
2018-05-14T15:06:45.313Z,22.70
2018-05-14T15:09:12.825Z,22.90
2018-05-14T15:11:40.303Z,22.60
2018-05-14T15:14:07.908Z,21.30
2018-05-14T15:16:35.309Z,20.60
2018-05-14T15:19:03.581Z,19.90
2018-05-14T15:21:31.064Z,19.90
2018-05-14T15:23:59.353Z,20.20
2018-05-14T15:26:26.828Z,20.20
2018-05-14T15:28:54.307Z,20.60
2018-05-14T15:31:21.827Z,21.00
2018-05-14T15:33:49.302Z,21.50
2018-05-14T15:36:16.949Z,21.60
2018-05-14T15:38:44.438Z,21.50
2018-05-14T15:41:11.969Z,21.20
2018-05-14T15:43:39.430Z,20.70
2018-05-14T15:46:07.075Z,20.20
2018-05-14T15:48:35.319Z,19.70
2018-05-14T15:51:02.830Z,19.70
2018-05-14T15:53:30.294Z,20.00
2018-05-14T15:55:57.883Z,20.40
2018-05-14T15:58:25.382Z,20.80
2018-05-14T16:00:53.640Z,20.40
2018-05-14T16:03:21.906Z,19.80
2018-05-14T16:05:49.394Z,19.80
2018-05-14T16:08:17.691Z,19.10
2018-05-14T16:10:45.178Z,19.10
2018-05-14T16:13:12.729Z,18.80
2018-05-14T16:15:40.234Z,18.70
2018-05-14T16:18:07.763Z,18.60
2018-05-14T16:33:00.321Z,17.40
2018-05-14T16:35:28.583Z,17.30
2018-05-14T16:37:56.069Z,17.30
2018-05-14T16:40:24.386Z,17.10
2018-05-14T16:42:51.894Z,17.10
2018-05-14T16:45:20.517Z,17.20
2018-05-14T16:47:47.991Z,17.20
2018-05-14T16:50:15.575Z,17.30
2018-05-14T16:52:42.977Z,17.20
2018-05-14T16:55:10.489Z,17.20
2018-05-14T16:57:38.079Z,17.20
2018-05-14T17:00:05.547Z,17.10
2018-05-14T17:02:33.059Z,17.10
2018-05-14T17:05:00.618Z,16.90
2018-05-14T17:07:28.106Z,16.90
2018-05-14T17:09:56.424Z,16.90
2018-05-14T17:12:23.948Z,16.80
2018-05-14T17:14:52.240Z,16.60
2018-05-14T17:17:19.811Z,16.60
2018-05-14T17:19:48.153Z,16.30
2018-05-14T17:22:16.404Z,16.30
2018-05-14T17:24:43.927Z,16.30
2018-05-14T17:27:11.440Z,16.00
2018-05-14T17:29:39.711Z,15.90
2018-05-14T17:32:07.208Z,15.80
2018-05-14T17:34:34.703Z,15.90
2018-05-14T17:37:02.258Z,15.80
2018-05-14T17:39:29.748Z,15.70
2018-05-14T17:56:50.705Z,15.10
2018-05-14T17:59:18.213Z,15.10
2018-05-14T18:01:45.752Z,15.00
2018-05-14T18:04:13.267Z,15.00
2018-05-14T18:06:40.780Z,15.00
2018-05-14T18:09:08.263Z,14.90
2018-05-14T18:11:36.568Z,14.80
2018-05-14T18:14:04.541Z,14.80
2018-05-14T18:16:32.037Z,14.80
2018-05-14T18:18:59.567Z,14.70
2018-05-14T18:21:32.659Z,14.70
2018-05-14T18:24:00.209Z,14.60
2018-05-14T18:26:33.424Z,14.40
2018-05-14T18:29:05.809Z,14.40
2018-05-14T18:31:33.302Z,14.40
2018-05-14T18:34:07.409Z,14.20
